sensor_id;sensor_type;location;lat;lon;timestamp;P1;durP1;ratioP1;P2;durP2;ratioP2
4726;SDS011;2377;51.734;8.950;2022-12-07T00:01:53;34.63;;;18.13;;
4726;SDS011;2377;51.734;8.950;2022-12-07T00:04:20;41.97;;;19.00;;
4726;SDS011;2377;51.734;8.950;2022-12-07T00:06:50;33.70;;;17.73;;
4726;SDS011;2377;51.734;8.950;2022-12-07T00:09:19;50.67;;;21.00;;
4726;SDS011;2377;51.734;8.950;2022-12-07T00:11:47;132.27;;;22.37;;
4726;SDS011;2377;51.734;8.950;2022-12-07T00:14:18;148.87;;;24.00;;
4726;SDS011;2377;51.734;8.950;2022-12-07T00:16:48;131.67;;;24.37;;
4726;SDS011;2377;51.734;8.950;2022-12-07T00:19:17;170.00;;;26.60;;
4726;SDS011;2377;51.734;8.950;2022-12-07T00:21:44;228.20;;;30.30;;
4726;SDS011;2377;51.734;8.950;2022-12-07T00:24:12;378.43;;;32.60;;
4726;SDS011;2377;51.734;8.950;2022-12-07T00:26:40;261.03;;;27.40;;
4726;SDS011;2377;51.734;8.950;2022-12-07T00:29:09;373.90;;;38.43;;
4726;SDS011;2377;51.734;8.950;2022-12-07T00:31:44;285.50;;;30.73;;
4726;SDS011;2377;51.734;8.950;2022-12-07T00:34:13;154.67;;;24.43;;
4726;SDS011;2377;51.734;8.950;2022-12-07T00:36:42;288.73;;;30.00;;
4726;SDS011;2377;51.734;8.950;2022-12-07T00:39:10;409.77;;;33.67;;
4726;SDS011;2377;51.734;8.950;2022-12-07T00:41:37;270.40;;;29.90;;
4726;SDS011;2377;51.734;8.950;2022-12-07T00:44:04;275.53;;;30.03;;
4726;SDS011;2377;51.734;8.950;2022-12-07T00:46:32;169.57;;;25.13;;
4726;SDS011;2377;51.734;8.950;2022-12-07T00:49:00;246.03;;;31.23;;
4726;SDS011;2377;51.734;8.950;2022-12-07T00:51:28;459.17;;;38.60;;
4726;SDS011;2377;51.734;8.950;2022-12-07T00:53:55;281.30;;;30.70;;
4726;SDS011;2377;51.734;8.950;2022-12-07T00:56:23;487.37;;;41.93;;
4726;SDS011;2377;51.734;8.950;2022-12-07T00:58:53;244.07;;;27.13;;
4726;SDS011;2377;51.734;8.950;2022-12-07T01:01:23;291.27;;;31.23;;
4726;SDS011;2377;51.734;8.950;2022-12-07T01:03:52;583.17;;;46.63;;
4726;SDS011;2377;51.734;8.950;2022-12-07T01:06:21;275.53;;;29.90;;
4726;SDS011;2377;51.734;8.950;2022-12-07T01:08:50;294.60;;;34.60;;
4726;SDS011;2377;51.734;8.950;2022-12-07T01:11:19;233.17;;;30.43;;
4726;SDS011;2377;51.734;8.950;2022-12-07T01:13:49;101.20;;;25.40;;
4726;SDS011;2377;51.734;8.950;2022-12-07T01:16:18;450.73;;;39.53;;
4726;SDS011;2377;51.734;8.950;2022-12-07T01:18:47;386.57;;;39.80;;
4726;SDS011;2377;51.734;8.950;2022-12-07T01:21:19;426.30;;;38.40;;
4726;SDS011;2377;51.734;8.950;2022-12-07T01:23:50;444.23;;;36.80;;
4726;SDS011;2377;51.734;8.950;2022-12-07T01:26:19;316.73;;;30.90;;
4726;SDS011;2377;51.734;8.950;2022-12-07T01:28:50;261.97;;;29.30;;
4726;SDS011;2377;51.734;8.950;2022-12-07T01:31:20;408.47;;;34.53;;
4726;SDS011;2377;51.734;8.950;2022-12-07T01:33:51;403.17;;;34.33;;
4726;SDS011;2377;51.734;8.950;2022-12-07T01:36:23;413.27;;;37.30;;
4726;SDS011;2377;51.734;8.950;2022-12-07T01:38:54;749.67;;;54.27;;
4726;SDS011;2377;51.734;8.950;2022-12-07T01:41:24;337.77;;;34.40;;
4726;SDS011;2377;51.734;8.950;2022-12-07T01:44:10;445.70;;;37.07;;
4726;SDS011;2377;51.734;8.950;2022-12-07T01:46:45;237.63;;;32.33;;
4726;SDS011;2377;51.734;8.950;2022-12-07T01:49:16;217.60;;;31.40;;
4726;SDS011;2377;51.734;8.950;2022-12-07T01:51:52;144.53;;;26.50;;
4726;SDS011;2377;51.734;8.950;2022-12-07T01:54:28;335.13;;;31.77;;
4726;SDS011;2377;51.734;8.950;2022-12-07T01:56:55;273.27;;;32.23;;
4726;SDS011;2377;51.734;8.950;2022-12-07T01:59:25;508.27;;;39.23;;
4726;SDS011;2377;51.734;8.950;2022-12-07T02:01:53;349.40;;;33.37;;
4726;SDS011;2377;51.734;8.950;2022-12-07T02:04:24;378.07;;;34.47;;
4726;SDS011;2377;51.734;8.950;2022-12-07T02:06:53;154.17;;;25.37;;
4726;SDS011;2377;51.734;8.950;2022-12-07T02:09:23;254.80;;;31.40;;
4726;SDS011;2377;51.734;8.950;2022-12-07T02:11:51;332.30;;;41.50;;
4726;SDS011;2377;51.734;8.950;2022-12-07T02:14:20;132.73;;;26.33;;
4726;SDS011;2377;51.734;8.950;2022-12-07T02:16:51;148.63;;;32.43;;
4726;SDS011;2377;51.734;8.950;2022-12-07T02:19:41;54.07;;;27.77;;
4726;SDS011;2377;51.734;8.950;2022-12-07T02:29:47;48.33;;;24.67;;
4726;SDS011;2377;51.734;8.950;2022-12-07T02:32:25;106.13;;;30.67;;
4726;SDS011;2377;51.734;8.950;2022-12-07T02:35:06;50.33;;;24.40;;
4726;SDS011;2377;51.734;8.950;2022-12-07T02:37:39;45.60;;;25.43;;
4726;SDS011;2377;51.734;8.950;2022-12-07T02:40:17;35.33;;;20.50;;
4726;SDS011;2377;51.734;8.950;2022-12-07T02:42:52;43.07;;;22.80;;
4726;SDS011;2377;51.734;8.950;2022-12-07T02:45:29;96.07;;;27.60;;
4726;SDS011;2377;51.734;8.950;2022-12-07T02:48:00;64.73;;;25.57;;
4726;SDS011;2377;51.734;8.950;2022-12-07T02:50:31;84.47;;;24.27;;
4726;SDS011;2377;51.734;8.950;2022-12-07T02:52:58;181.20;;;30.40;;
4726;SDS011;2377;51.734;8.950;2022-12-07T02:55:27;97.37;;;26.73;;
4726;SDS011;2377;51.734;8.950;2022-12-07T02:58:06;268.60;;;30.60;;
4726;SDS011;2377;51.734;8.950;2022-12-07T03:00:55;110.23;;;25.83;;
4726;SDS011;2377;51.734;8.950;2022-12-07T03:03:35;154.37;;;25.00;;
4726;SDS011;2377;51.734;8.950;2022-12-07T03:06:09;86.17;;;24.57;;
4726;SDS011;2377;51.734;8.950;2022-12-07T03:08:47;132.30;;;27.27;;
4726;SDS011;2377;51.734;8.950;2022-12-07T03:11:23;39.17;;;22.67;;
4726;SDS011;2377;51.734;8.950;2022-12-07T03:14:02;69.03;;;25.03;;
4726;SDS011;2377;51.734;8.950;2022-12-07T03:16:45;64.70;;;25.47;;
4726;SDS011;2377;51.734;8.950;2022-12-07T03:19:22;109.20;;;22.23;;
4726;SDS011;2377;51.734;8.950;2022-12-07T03:21:53;53.67;;;22.70;;
4726;SDS011;2377;51.734;8.950;2022-12-07T03:24:26;46.63;;;23.33;;
4726;SDS011;2377;51.734;8.950;2022-12-07T03:26:59;50.33;;;23.17;;
4726;SDS011;2377;51.734;8.950;2022-12-07T03:29:34;43.87;;;21.90;;
4726;SDS011;2377;51.734;8.950;2022-12-07T03:32:10;40.63;;;20.57;;
4726;SDS011;2377;51.734;8.950;2022-12-07T03:34:56;38.03;;;20.90;;
4726;SDS011;2377;51.734;8.950;2022-12-07T03:37:32;30.60;;;18.50;;
4726;SDS011;2377;51.734;8.950;2022-12-07T03:40:07;35.57;;;19.30;;
4726;SDS011;2377;51.734;8.950;2022-12-07T03:42:42;31.83;;;17.67;;
4726;SDS011;2377;51.734;8.950;2022-12-07T03:45:10;32.40;;;18.67;;
4726;SDS011;2377;51.734;8.950;2022-12-07T03:47:42;37.73;;;18.50;;
4726;SDS011;2377;51.734;8.950;2022-12-07T03:50:21;32.17;;;16.67;;
4726;SDS011;2377;51.734;8.950;2022-12-07T03:52:58;27.43;;;15.70;;
4726;SDS011;2377;51.734;8.950;2022-12-07T03:55:35;23.23;;;14.63;;
4726;SDS011;2377;51.734;8.950;2022-12-07T03:58:09;38.50;;;18.43;;
4726;SDS011;2377;51.734;8.950;2022-12-07T04:00:43;33.20;;;17.37;;
4726;SDS011;2377;51.734;8.950;2022-12-07T04:03:14;30.90;;;16.37;;
4726;SDS011;2377;51.734;8.950;2022-12-07T04:05:41;26.20;;;15.37;;
4726;SDS011;2377;51.734;8.950;2022-12-07T04:08:10;24.80;;;13.27;;
4726;SDS011;2377;51.734;8.950;2022-12-07T04:10:37;21.00;;;12.10;;
4726;SDS011;2377;51.734;8.950;2022-12-07T04:13:05;29.97;;;13.70;;
4726;SDS011;2377;51.734;8.950;2022-12-07T04:15:32;29.07;;;16.60;;
4726;SDS011;2377;51.734;8.950;2022-12-07T04:17:59;32.40;;;14.47;;
4726;SDS011;2377;51.734;8.950;2022-12-07T04:20:28;32.43;;;14.70;;
4726;SDS011;2377;51.734;8.950;2022-12-07T04:22:55;22.83;;;12.50;;
4726;SDS011;2377;51.734;8.950;2022-12-07T04:25:22;21.93;;;12.43;;
4726;SDS011;2377;51.734;8.950;2022-12-07T04:27:49;20.20;;;11.83;;
4726;SDS011;2377;51.734;8.950;2022-12-07T04:30:17;23.10;;;12.23;;
4726;SDS011;2377;51.734;8.950;2022-12-07T04:32:44;22.17;;;11.70;;
4726;SDS011;2377;51.734;8.950;2022-12-07T04:35:11;16.03;;;10.33;;
4726;SDS011;2377;51.734;8.950;2022-12-07T04:37:40;23.13;;;12.57;;
4726;SDS011;2377;51.734;8.950;2022-12-07T04:40:07;21.37;;;11.17;;
4726;SDS011;2377;51.734;8.950;2022-12-07T04:42:36;26.67;;;12.93;;
4726;SDS011;2377;51.734;8.950;2022-12-07T04:45:03;22.00;;;12.60;;
4726;SDS011;2377;51.734;8.950;2022-12-07T04:47:33;31.83;;;14.37;;
4726;SDS011;2377;51.734;8.950;2022-12-07T04:50:00;27.63;;;12.47;;
4726;SDS011;2377;51.734;8.950;2022-12-07T04:52:27;26.73;;;12.80;;
4726;SDS011;2377;51.734;8.950;2022-12-07T04:54:55;20.00;;;11.77;;
4726;SDS011;2377;51.734;8.950;2022-12-07T04:57:23;27.53;;;13.33;;
4726;SDS011;2377;51.734;8.950;2022-12-07T04:59:50;23.90;;;12.93;;
4726;SDS011;2377;51.734;8.950;2022-12-07T05:02:17;26.13;;;13.17;;
4726;SDS011;2377;51.734;8.950;2022-12-07T05:04:44;18.00;;;10.83;;
4726;SDS011;2377;51.734;8.950;2022-12-07T05:07:12;22.67;;;11.77;;
4726;SDS011;2377;51.734;8.950;2022-12-07T05:09:39;19.30;;;11.17;;
4726;SDS011;2377;51.734;8.950;2022-12-07T05:12:07;19.00;;;10.33;;
4726;SDS011;2377;51.734;8.950;2022-12-07T05:14:35;27.13;;;11.47;;
4726;SDS011;2377;51.734;8.950;2022-12-07T05:17:02;29.73;;;14.00;;
4726;SDS011;2377;51.734;8.950;2022-12-07T05:19:29;22.87;;;11.70;;
4726;SDS011;2377;51.734;8.950;2022-12-07T05:21:57;18.03;;;11.50;;
4726;SDS011;2377;51.734;8.950;2022-12-07T05:24:24;28.70;;;13.13;;
4726;SDS011;2377;51.734;8.950;2022-12-07T05:26:51;25.80;;;12.90;;
4726;SDS011;2377;51.734;8.950;2022-12-07T05:29:20;29.20;;;12.20;;
4726;SDS011;2377;51.734;8.950;2022-12-07T05:31:47;28.43;;;13.30;;
4726;SDS011;2377;51.734;8.950;2022-12-07T05:34:14;21.23;;;12.00;;
4726;SDS011;2377;51.734;8.950;2022-12-07T05:36:42;29.67;;;13.93;;
4726;SDS011;2377;51.734;8.950;2022-12-07T05:39:09;37.87;;;14.73;;
4726;SDS011;2377;51.734;8.950;2022-12-07T05:41:37;27.90;;;13.87;;
4726;SDS011;2377;51.734;8.950;2022-12-07T05:44:23;26.87;;;13.33;;
4726;SDS011;2377;51.734;8.950;2022-12-07T05:46:50;22.83;;;13.47;;
4726;SDS011;2377;51.734;8.950;2022-12-07T05:49:17;23.63;;;13.80;;
4726;SDS011;2377;51.734;8.950;2022-12-07T05:51:45;29.43;;;14.20;;
4726;SDS011;2377;51.734;8.950;2022-12-07T05:54:12;41.73;;;17.17;;
4726;SDS011;2377;51.734;8.950;2022-12-07T05:56:39;30.37;;;14.50;;
4726;SDS011;2377;51.734;8.950;2022-12-07T05:59:07;33.13;;;14.80;;
4726;SDS011;2377;51.734;8.950;2022-12-07T06:01:53;36.27;;;17.40;;
4726;SDS011;2377;51.734;8.950;2022-12-07T06:04:23;49.13;;;18.30;;
4726;SDS011;2377;51.734;8.950;2022-12-07T06:06:53;34.00;;;16.90;;
4726;SDS011;2377;51.734;8.950;2022-12-07T06:09:21;27.87;;;16.03;;
4726;SDS011;2377;51.734;8.950;2022-12-07T06:11:51;47.37;;;20.07;;
4726;SDS011;2377;51.734;8.950;2022-12-07T06:14:36;36.33;;;17.70;;
4726;SDS011;2377;51.734;8.950;2022-12-07T06:17:05;48.97;;;17.60;;
4726;SDS011;2377;51.734;8.950;2022-12-07T06:19:33;35.77;;;17.50;;
4726;SDS011;2377;51.734;8.950;2022-12-07T06:22:01;30.80;;;16.40;;
4726;SDS011;2377;51.734;8.950;2022-12-07T06:24:30;26.33;;;15.50;;
4726;SDS011;2377;51.734;8.950;2022-12-07T06:26:58;27.23;;;16.00;;
4726;SDS011;2377;51.734;8.950;2022-12-07T06:29:25;32.33;;;17.67;;
4726;SDS011;2377;51.734;8.950;2022-12-07T06:31:52;28.57;;;13.70;;
4726;SDS011;2377;51.734;8.950;2022-12-07T06:34:21;25.10;;;14.13;;
4726;SDS011;2377;51.734;8.950;2022-12-07T06:36:51;41.03;;;14.10;;
4726;SDS011;2377;51.734;8.950;2022-12-07T06:39:21;22.97;;;12.97;;
4726;SDS011;2377;51.734;8.950;2022-12-07T06:41:50;22.50;;;12.50;;
4726;SDS011;2377;51.734;8.950;2022-12-07T06:44:19;23.73;;;11.87;;
4726;SDS011;2377;51.734;8.950;2022-12-07T06:46:47;22.13;;;12.63;;
4726;SDS011;2377;51.734;8.950;2022-12-07T06:49:15;22.53;;;12.90;;
4726;SDS011;2377;51.734;8.950;2022-12-07T06:51:44;22.80;;;12.47;;
4726;SDS011;2377;51.734;8.950;2022-12-07T06:54:12;27.53;;;13.20;;
4726;SDS011;2377;51.734;8.950;2022-12-07T06:56:42;29.47;;;15.53;;
4726;SDS011;2377;51.734;8.950;2022-12-07T06:59:09;28.17;;;13.67;;
4726;SDS011;2377;51.734;8.950;2022-12-07T07:01:37;26.20;;;14.23;;
4726;SDS011;2377;51.734;8.950;2022-12-07T07:04:04;34.93;;;15.77;;
4726;SDS011;2377;51.734;8.950;2022-12-07T07:06:31;29.93;;;13.87;;
4726;SDS011;2377;51.734;8.950;2022-12-07T07:09:00;38.10;;;15.20;;
4726;SDS011;2377;51.734;8.950;2022-12-07T07:11:27;58.33;;;19.70;;
4726;SDS011;2377;51.734;8.950;2022-12-07T07:13:55;33.37;;;16.00;;
4726;SDS011;2377;51.734;8.950;2022-12-07T07:16:27;46.90;;;19.73;;
4726;SDS011;2377;51.734;8.950;2022-12-07T07:18:55;33.87;;;15.80;;
4726;SDS011;2377;51.734;8.950;2022-12-07T07:21:23;51.80;;;18.70;;
4726;SDS011;2377;51.734;8.950;2022-12-07T07:23:50;39.43;;;17.90;;
4726;SDS011;2377;51.734;8.950;2022-12-07T07:26:19;32.73;;;16.50;;
4726;SDS011;2377;51.734;8.950;2022-12-07T07:28:46;33.93;;;14.57;;
4726;SDS011;2377;51.734;8.950;2022-12-07T07:31:13;37.67;;;16.13;;
4726;SDS011;2377;51.734;8.950;2022-12-07T07:33:41;38.30;;;16.03;;
4726;SDS011;2377;51.734;8.950;2022-12-07T07:36:08;31.53;;;16.53;;
4726;SDS011;2377;51.734;8.950;2022-12-07T07:38:35;39.53;;;16.50;;
4726;SDS011;2377;51.734;8.950;2022-12-07T07:41:03;28.73;;;15.40;;
4726;SDS011;2377;51.734;8.950;2022-12-07T07:43:32;33.23;;;16.07;;
4726;SDS011;2377;51.734;8.950;2022-12-07T07:45:59;30.70;;;15.53;;
4726;SDS011;2377;51.734;8.950;2022-12-07T07:48:27;35.83;;;17.23;;
4726;SDS011;2377;51.734;8.950;2022-12-07T07:50:54;30.80;;;15.77;;
4726;SDS011;2377;51.734;8.950;2022-12-07T07:53:21;43.37;;;16.90;;
4726;SDS011;2377;51.734;8.950;2022-12-07T07:55:51;34.27;;;16.63;;
4726;SDS011;2377;51.734;8.950;2022-12-07T07:58:19;54.60;;;17.07;;
4726;SDS011;2377;51.734;8.950;2022-12-07T08:00:49;45.47;;;18.30;;
4726;SDS011;2377;51.734;8.950;2022-12-07T08:03:16;44.57;;;18.67;;
4726;SDS011;2377;51.734;8.950;2022-12-07T08:05:43;38.43;;;16.30;;
4726;SDS011;2377;51.734;8.950;2022-12-07T08:08:11;28.87;;;15.93;;
4726;SDS011;2377;51.734;8.950;2022-12-07T08:10:38;29.70;;;15.70;;
4726;SDS011;2377;51.734;8.950;2022-12-07T08:13:06;26.97;;;13.87;;
4726;SDS011;2377;51.734;8.950;2022-12-07T08:15:40;38.27;;;18.77;;
4726;SDS011;2377;51.734;8.950;2022-12-07T08:18:11;22.00;;;13.10;;
4726;SDS011;2377;51.734;8.950;2022-12-07T08:20:40;31.97;;;15.27;;
4726;SDS011;2377;51.734;8.950;2022-12-07T08:23:08;36.07;;;14.50;;
4726;SDS011;2377;51.734;8.950;2022-12-07T08:25:37;29.23;;;13.90;;
4726;SDS011;2377;51.734;8.950;2022-12-07T08:28:05;48.37;;;16.27;;
4726;SDS011;2377;51.734;8.950;2022-12-07T08:30:33;23.83;;;12.53;;
4726;SDS011;2377;51.734;8.950;2022-12-07T08:33:00;30.50;;;13.30;;
4726;SDS011;2377;51.734;8.950;2022-12-07T08:35:29;21.87;;;10.63;;
4726;SDS011;2377;51.734;8.950;2022-12-07T08:37:59;27.63;;;12.73;;
4726;SDS011;2377;51.734;8.950;2022-12-07T08:40:27;24.00;;;13.73;;
4726;SDS011;2377;51.734;8.950;2022-12-07T08:42:55;19.07;;;11.33;;
4726;SDS011;2377;51.734;8.950;2022-12-07T08:45:22;24.90;;;13.10;;
4726;SDS011;2377;51.734;8.950;2022-12-07T08:47:52;24.13;;;13.53;;
4726;SDS011;2377;51.734;8.950;2022-12-07T08:50:30;38.93;;;15.80;;
4726;SDS011;2377;51.734;8.950;2022-12-07T08:52:59;31.40;;;15.07;;
4726;SDS011;2377;51.734;8.950;2022-12-07T08:55:28;30.43;;;12.13;;
4726;SDS011;2377;51.734;8.950;2022-12-07T08:57:56;22.70;;;12.60;;
4726;SDS011;2377;51.734;8.950;2022-12-07T09:00:25;50.40;;;14.93;;
4726;SDS011;2377;51.734;8.950;2022-12-07T09:02:53;28.83;;;14.43;;
4726;SDS011;2377;51.734;8.950;2022-12-07T09:05:20;29.47;;;15.60;;
4726;SDS011;2377;51.734;8.950;2022-12-07T09:07:50;40.23;;;14.00;;
4726;SDS011;2377;51.734;8.950;2022-12-07T09:10:23;28.73;;;13.57;;
4726;SDS011;2377;51.734;8.950;2022-12-07T09:12:51;29.30;;;12.80;;
4726;SDS011;2377;51.734;8.950;2022-12-07T09:15:18;33.87;;;13.13;;
4726;SDS011;2377;51.734;8.950;2022-12-07T09:17:45;27.90;;;12.53;;
4726;SDS011;2377;51.734;8.950;2022-12-07T09:20:13;25.70;;;13.33;;
4726;SDS011;2377;51.734;8.950;2022-12-07T09:22:40;32.00;;;13.00;;
4726;SDS011;2377;51.734;8.950;2022-12-07T09:25:09;21.63;;;11.33;;
4726;SDS011;2377;51.734;8.950;2022-12-07T09:27:37;27.23;;;12.10;;
4726;SDS011;2377;51.734;8.950;2022-12-07T09:30:05;23.37;;;11.50;;
4726;SDS011;2377;51.734;8.950;2022-12-07T09:32:34;22.10;;;12.03;;
4726;SDS011;2377;51.734;8.950;2022-12-07T09:35:02;22.40;;;11.00;;
4726;SDS011;2377;51.734;8.950;2022-12-07T09:37:29;20.77;;;11.50;;
4726;SDS011;2377;51.734;8.950;2022-12-07T09:40:00;31.47;;;13.83;;
4726;SDS011;2377;51.734;8.950;2022-12-07T09:42:29;26.60;;;12.00;;
4726;SDS011;2377;51.734;8.950;2022-12-07T09:45:05;24.90;;;11.83;;
4726;SDS011;2377;51.734;8.950;2022-12-07T09:47:38;25.83;;;11.60;;
4726;SDS011;2377;51.734;8.950;2022-12-07T09:50:06;21.10;;;11.70;;
4726;SDS011;2377;51.734;8.950;2022-12-07T09:52:40;16.27;;;8.53;;
4726;SDS011;2377;51.734;8.950;2022-12-07T09:55:13;21.63;;;10.10;;
4726;SDS011;2377;51.734;8.950;2022-12-07T09:57:43;16.80;;;9.10;;
4726;SDS011;2377;51.734;8.950;2022-12-07T10:00:13;21.83;;;9.90;;
4726;SDS011;2377;51.734;8.950;2022-12-07T10:02:44;19.43;;;10.27;;
4726;SDS011;2377;51.734;8.950;2022-12-07T10:05:16;27.17;;;11.40;;
4726;SDS011;2377;51.734;8.950;2022-12-07T10:07:50;23.33;;;10.30;;
4726;SDS011;2377;51.734;8.950;2022-12-07T10:10:19;28.90;;;13.50;;
4726;SDS011;2377;51.734;8.950;2022-12-07T10:12:54;21.80;;;11.90;;
4726;SDS011;2377;51.734;8.950;2022-12-07T10:18:17;16.40;;;9.03;;
4726;SDS011;2377;51.734;8.950;2022-12-07T10:21:00;18.03;;;9.10;;
4726;SDS011;2377;51.734;8.950;2022-12-07T10:23:34;22.70;;;10.50;;
4726;SDS011;2377;51.734;8.950;2022-12-07T10:28:56;18.07;;;9.43;;
4726;SDS011;2377;51.734;8.950;2022-12-07T10:31:28;20.63;;;10.40;;
4726;SDS011;2377;51.734;8.950;2022-12-07T10:33:56;15.70;;;8.87;;
4726;SDS011;2377;51.734;8.950;2022-12-07T10:36:26;25.17;;;10.67;;
4726;SDS011;2377;51.734;8.950;2022-12-07T10:39:03;15.50;;;8.63;;
4726;SDS011;2377;51.734;8.950;2022-12-07T10:41:49;21.80;;;10.40;;
4726;SDS011;2377;51.734;8.950;2022-12-07T10:44:24;19.93;;;11.20;;
4726;SDS011;2377;51.734;8.950;2022-12-07T10:46:57;28.57;;;11.07;;
4726;SDS011;2377;51.734;8.950;2022-12-07T10:49:50;23.53;;;11.60;;
4726;SDS011;2377;51.734;8.950;2022-12-07T10:52:44;19.33;;;10.87;;
4726;SDS011;2377;51.734;8.950;2022-12-07T10:55:29;27.40;;;11.83;;
4726;SDS011;2377;51.734;8.950;2022-12-07T10:58:27;24.83;;;10.40;;
4726;SDS011;2377;51.734;8.950;2022-12-07T11:01:13;26.50;;;11.73;;
4726;SDS011;2377;51.734;8.950;2022-12-07T11:03:58;18.57;;;9.90;;
4726;SDS011;2377;51.734;8.950;2022-12-07T11:06:52;15.63;;;9.30;;
4726;SDS011;2377;51.734;8.950;2022-12-07T11:09:32;18.60;;;10.73;;
4726;SDS011;2377;51.734;8.950;2022-12-07T11:12:27;20.37;;;10.37;;
4726;SDS011;2377;51.734;8.950;2022-12-07T11:15:11;16.50;;;10.20;;
4726;SDS011;2377;51.734;8.950;2022-12-07T11:17:51;30.03;;;11.33;;
4726;SDS011;2377;51.734;8.950;2022-12-07T11:20:35;27.10;;;11.33;;
4726;SDS011;2377;51.734;8.950;2022-12-07T11:23:14;19.57;;;11.47;;
4726;SDS011;2377;51.734;8.950;2022-12-07T11:25:54;19.20;;;11.07;;
4726;SDS011;2377;51.734;8.950;2022-12-07T11:28:39;23.63;;;11.43;;
4726;SDS011;2377;51.734;8.950;2022-12-07T11:31:28;18.13;;;10.40;;
4726;SDS011;2377;51.734;8.950;2022-12-07T11:34:07;14.50;;;9.87;;
4726;SDS011;2377;51.734;8.950;2022-12-07T11:36:46;18.20;;;10.97;;
4726;SDS011;2377;51.734;8.950;2022-12-07T11:39:20;23.10;;;11.13;;
4726;SDS011;2377;51.734;8.950;2022-12-07T11:41:56;18.30;;;9.93;;
4726;SDS011;2377;51.734;8.950;2022-12-07T11:44:33;22.40;;;10.57;;
4726;SDS011;2377;51.734;8.950;2022-12-07T11:47:21;21.97;;;11.30;;
4726;SDS011;2377;51.734;8.950;2022-12-07T11:49:58;19.60;;;10.93;;
4726;SDS011;2377;51.734;8.950;2022-12-07T11:52:48;20.40;;;11.20;;
4726;SDS011;2377;51.734;8.950;2022-12-07T11:55:26;19.43;;;10.00;;
4726;SDS011;2377;51.734;8.950;2022-12-07T11:58:18;18.27;;;10.17;;
4726;SDS011;2377;51.734;8.950;2022-12-07T12:01:12;21.40;;;11.20;;
4726;SDS011;2377;51.734;8.950;2022-12-07T12:04:02;19.30;;;9.10;;
4726;SDS011;2377;51.734;8.950;2022-12-07T12:06:51;26.17;;;9.50;;
4726;SDS011;2377;51.734;8.950;2022-12-07T12:09:20;22.33;;;9.13;;
4726;SDS011;2377;51.734;8.950;2022-12-07T12:12:00;16.47;;;8.33;;
4726;SDS011;2377;51.734;8.950;2022-12-07T12:15:03;20.67;;;9.70;;
4726;SDS011;2377;51.734;8.950;2022-12-07T12:17:56;14.17;;;7.53;;
4726;SDS011;2377;51.734;8.950;2022-12-07T12:20:58;14.03;;;7.03;;
4726;SDS011;2377;51.734;8.950;2022-12-07T12:23:36;25.03;;;8.93;;
4726;SDS011;2377;51.734;8.950;2022-12-07T12:26:13;14.53;;;6.33;;
4726;SDS011;2377;51.734;8.950;2022-12-07T12:28:50;13.47;;;7.30;;
4726;SDS011;2377;51.734;8.950;2022-12-07T12:31:37;18.50;;;8.07;;
4726;SDS011;2377;51.734;8.950;2022-12-07T12:52:48;15.60;;;7.83;;
4726;SDS011;2377;51.734;8.950;2022-12-07T12:55:30;15.90;;;7.20;;
4726;SDS011;2377;51.734;8.950;2022-12-07T12:58:41;15.40;;;7.30;;
4726;SDS011;2377;51.734;8.950;2022-12-07T13:10:28;14.57;;;6.37;;
4726;SDS011;2377;51.734;8.950;2022-12-07T13:13:29;19.83;;;7.77;;
4726;SDS011;2377;51.734;8.950;2022-12-07T13:25:38;19.57;;;7.30;;
4726;SDS011;2377;51.734;8.950;2022-12-07T13:28:17;15.23;;;6.60;;
4726;SDS011;2377;51.734;8.950;2022-12-07T13:30:57;15.27;;;5.70;;
4726;SDS011;2377;51.734;8.950;2022-12-07T13:34:00;14.67;;;5.97;;
4726;SDS011;2377;51.734;8.950;2022-12-07T13:36:29;15.23;;;5.53;;
4726;SDS011;2377;51.734;8.950;2022-12-07T13:39:10;22.57;;;6.80;;
4726;SDS011;2377;51.734;8.950;2022-12-07T13:41:46;10.30;;;6.03;;
4726;SDS011;2377;51.734;8.950;2022-12-07T13:44:18;15.80;;;6.00;;
4726;SDS011;2377;51.734;8.950;2022-12-07T13:46:56;15.90;;;6.53;;
4726;SDS011;2377;51.734;8.950;2022-12-07T13:49:37;17.43;;;6.97;;
4726;SDS011;2377;51.734;8.950;2022-12-07T13:52:13;13.40;;;6.27;;
4726;SDS011;2377;51.734;8.950;2022-12-07T13:54:44;12.90;;;6.80;;
4726;SDS011;2377;51.734;8.950;2022-12-07T13:57:13;11.40;;;6.40;;
4726;SDS011;2377;51.734;8.950;2022-12-07T13:59:41;12.30;;;5.77;;
4726;SDS011;2377;51.734;8.950;2022-12-07T14:02:20;12.80;;;6.10;;
4726;SDS011;2377;51.734;8.950;2022-12-07T14:05:05;16.90;;;5.80;;
4726;SDS011;2377;51.734;8.950;2022-12-07T14:07:47;16.77;;;5.73;;
4726;SDS011;2377;51.734;8.950;2022-12-07T14:10:24;11.97;;;6.10;;
4726;SDS011;2377;51.734;8.950;2022-12-07T14:12:53;14.20;;;6.23;;
4726;SDS011;2377;51.734;8.950;2022-12-07T14:15:22;23.50;;;8.70;;
4726;SDS011;2377;51.734;8.950;2022-12-07T14:17:56;9.57;;;5.80;;
4726;SDS011;2377;51.734;8.950;2022-12-07T14:20:30;12.00;;;5.10;;
4726;SDS011;2377;51.734;8.950;2022-12-07T14:22:59;15.83;;;6.13;;
4726;SDS011;2377;51.734;8.950;2022-12-07T14:25:44;19.00;;;5.43;;
4726;SDS011;2377;51.734;8.950;2022-12-07T14:28:24;10.90;;;5.30;;
4726;SDS011;2377;51.734;8.950;2022-12-07T14:30:53;13.57;;;4.37;;
4726;SDS011;2377;51.734;8.950;2022-12-07T14:33:22;12.27;;;6.23;;
4726;SDS011;2377;51.734;8.950;2022-12-07T14:35:50;12.73;;;6.10;;
4726;SDS011;2377;51.734;8.950;2022-12-07T14:38:20;16.63;;;6.63;;
4726;SDS011;2377;51.734;8.950;2022-12-07T14:40:48;11.37;;;5.40;;
4726;SDS011;2377;51.734;8.950;2022-12-07T14:43:16;16.13;;;5.77;;
4726;SDS011;2377;51.734;8.950;2022-12-07T14:45:45;12.17;;;6.20;;
4726;SDS011;2377;51.734;8.950;2022-12-07T14:48:12;8.67;;;5.30;;
4726;SDS011;2377;51.734;8.950;2022-12-07T14:50:43;14.17;;;6.07;;
4726;SDS011;2377;51.734;8.950;2022-12-07T14:53:18;10.47;;;5.13;;
4726;SDS011;2377;51.734;8.950;2022-12-07T14:55:54;9.27;;;5.67;;
4726;SDS011;2377;51.734;8.950;2022-12-07T14:58:22;16.87;;;5.60;;
4726;SDS011;2377;51.734;8.950;2022-12-07T15:00:49;12.90;;;5.67;;
4726;SDS011;2377;51.734;8.950;2022-12-07T15:03:16;14.50;;;5.23;;
4726;SDS011;2377;51.734;8.950;2022-12-07T15:05:45;15.37;;;5.60;;
4726;SDS011;2377;51.734;8.950;2022-12-07T15:08:12;13.10;;;5.77;;
4726;SDS011;2377;51.734;8.950;2022-12-07T15:10:40;12.67;;;5.40;;
4726;SDS011;2377;51.734;8.950;2022-12-07T15:13:07;14.70;;;5.63;;
4726;SDS011;2377;51.734;8.950;2022-12-07T15:15:53;16.63;;;5.50;;
4726;SDS011;2377;51.734;8.950;2022-12-07T15:18:21;8.57;;;5.50;;
4726;SDS011;2377;51.734;8.950;2022-12-07T15:20:51;12.63;;;5.87;;
4726;SDS011;2377;51.734;8.950;2022-12-07T15:23:18;10.40;;;5.93;;
4726;SDS011;2377;51.734;8.950;2022-12-07T15:25:49;14.70;;;5.90;;
4726;SDS011;2377;51.734;8.950;2022-12-07T15:28:16;16.57;;;5.97;;
4726;SDS011;2377;51.734;8.950;2022-12-07T15:30:43;11.10;;;5.03;;
4726;SDS011;2377;51.734;8.950;2022-12-07T15:33:11;17.43;;;6.60;;
4726;SDS011;2377;51.734;8.950;2022-12-07T15:35:39;11.80;;;5.30;;
4726;SDS011;2377;51.734;8.950;2022-12-07T15:38:08;13.90;;;5.57;;
4726;SDS011;2377;51.734;8.950;2022-12-07T15:40:36;13.47;;;5.93;;
4726;SDS011;2377;51.734;8.950;2022-12-07T15:43:03;12.00;;;5.20;;
4726;SDS011;2377;51.734;8.950;2022-12-07T15:45:50;15.27;;;6.13;;
4726;SDS011;2377;51.734;8.950;2022-12-07T15:48:16;10.00;;;6.10;;
4726;SDS011;2377;51.734;8.950;2022-12-07T15:50:44;16.13;;;7.43;;
4726;SDS011;2377;51.734;8.950;2022-12-07T15:53:12;19.00;;;6.17;;
4726;SDS011;2377;51.734;8.950;2022-12-07T15:55:40;20.13;;;6.10;;
4726;SDS011;2377;51.734;8.950;2022-12-07T15:58:07;22.40;;;7.50;;
4726;SDS011;2377;51.734;8.950;2022-12-07T16:00:34;13.93;;;6.63;;
4726;SDS011;2377;51.734;8.950;2022-12-07T16:03:01;15.00;;;6.90;;
4726;SDS011;2377;51.734;8.950;2022-12-07T16:05:29;13.67;;;6.50;;
4726;SDS011;2377;51.734;8.950;2022-12-07T16:07:56;11.83;;;6.93;;
4726;SDS011;2377;51.734;8.950;2022-12-07T16:10:25;15.10;;;7.20;;
4726;SDS011;2377;51.734;8.950;2022-12-07T16:12:52;13.77;;;7.73;;